Terminal Aerodrome Forecast
Issued by NWS Tuscon, AZ

Home | Current Version | Previous Version | Text Only | Print | Product List | Glossary On
Versions: 1 2 3 4 5 6 7 8 9 10 11 12 13 14 15
000
FTUS45 KTWC 161100 RRA
TAFDUG
TAF
KDUG 161140Z 1612/1712 34007KT P6SM VCSH SCT050 BKN080
     FM161400 09007KT P6SM SCT050 BKN070
     FM161700 12011KT P6SM VCSH SCT050 BKN070
     FM162200 13010KT P6SM -SHRA BKN040 OVC060
      TEMPO 1622/1624 -TSRA BKN035 OVC050CB=

USA.gov is the U.S. government's official web portal to all federal, state and local government web resources and services.